Time;durP1;ratioP1;P1;durP2;ratioP2;P2;SDS_P1;SDS_P2;PMS_P1;PMS_P2;Temp;Humidity;BMP_temperature;BMP_pressure;BME280_temperature;BME280_humidity;BME280_pressure;Samples;Min_cycle;Max_cycle;Signal;HPM_P1;HPM_P2
2021/03/07 00:00:02;;;;;;;3.85;1.75;;;2.30;80.00;;;;;;2075780;28;20033;-81
2021/03/07 00:01:03;;;;;;;3.50;1.58;;;2.30;80.00;;;;;;2074518;28;20072;-81
2021/03/07 00:02:04;;;;;;;4.70;1.77;;;2.30;80.00;;;;;;2072180;28;20030;-81
2021/03/07 00:03:04;;;;;;;4.35;1.80;;;2.30;80.10;;;;;;2072428;28;20038;-81
2021/03/07 00:04:05;;;;;;;3.55;1.70;;;2.30;80.10;;;;;;2079747;28;20028;-81
2021/03/07 00:05:08;;;;;;;4.10;1.63;;;2.30;80.10;;;;;;2080610;28;20030;-81
2021/03/07 00:06:09;;;;;;;5.03;2.00;;;2.30;80.20;;;;;;2080844;28;20021;-81
2021/03/07 00:07:09;;;;;;;4.13;1.92;;;2.30;80.30;;;;;;2071893;28;20514;-81
2021/03/07 00:08:10;;;;;;;4.32;1.80;;;2.30;80.30;;;;;;2059731;28;20539;-83
2021/03/07 00:09:10;;;;;;;6.18;1.90;;;2.30;80.30;;;;;;2072781;28;20026;-82
2021/03/07 00:10:13;;;;;;;4.82;2.05;;;2.20;80.30;;;;;;2080803;28;20045;-82
2021/03/07 00:11:14;;;;;;;4.10;1.65;;;2.30;80.50;;;;;;2074725;28;20032;-82
2021/03/07 00:12:15;;;;;;;4.32;1.70;;;2.30;80.60;;;;;;2056961;28;20401;-82
2021/03/07 00:13:15;;;;;;;4.57;1.90;;;2.20;80.50;;;;;;2064614;28;20559;-82
2021/03/07 00:14:16;;;;;;;4.93;1.98;;;2.20;80.50;;;;;;2063580;28;20038;-83
2021/03/07 00:15:18;;;;;;;4.80;1.95;;;2.20;80.50;;;;;;2064949;28;20042;-83
2021/03/07 00:16:19;;;;;;;4.88;1.70;;;2.20;80.50;;;;;;2072701;28;20057;-82
2021/03/07 00:17:19;;;;;;;3.85;1.80;;;2.20;80.60;;;;;;2068844;28;20023;-82
2021/03/07 00:18:20;;;;;;;3.92;1.88;;;2.10;80.60;;;;;;2066860;28;20120;-83
2021/03/07 00:19:21;;;;;;;5.03;1.77;;;2.20;80.70;;;;;;2077055;28;20049;-82
2021/03/07 00:20:22;;;;;;;5.20;2.05;;;2.10;80.70;;;;;;2076069;28;20116;-82
2021/03/07 00:21:22;;;;;;;4.28;2.05;;;2.10;80.90;;;;;;2076335;28;20018;-82
2021/03/07 00:22:23;;;;;;;5.55;2.30;;;2.10;80.90;;;;;;2073870;28;20041;-83
2021/03/07 00:23:24;;;;;;;4.38;2.10;;;2.10;81.00;;;;;;2064543;28;20456;-82
2021/03/07 00:24:24;;;;;;;4.35;1.92;;;2.10;81.00;;;;;;2048708;28;20475;-82
2021/03/07 00:25:25;;;;;;;4.90;2.15;;;2.10;81.00;;;;;;2046594;28;20086;-82
2021/03/07 00:26:25;;;;;;;5.45;1.85;;;2.10;81.10;;;;;;2056895;28;20030;-82
2021/03/07 00:27:26;;;;;;;4.65;1.77;;;2.10;81.00;;;;;;2071573;28;20030;-82
2021/03/07 00:28:27;;;;;;;5.13;1.95;;;2.10;81.10;;;;;;2068251;28;20050;-82
2021/03/07 00:29:28;;;;;;;4.82;1.80;;;2.10;81.10;;;;;;2064177;28;20388;-82
2021/03/07 00:30:28;;;;;;;4.38;1.90;;;2.10;81.80;;;;;;2064557;28;20026;-83
2021/03/07 00:31:29;;;;;;;4.93;1.60;;;2.10;81.20;;;;;;2064282;28;20042;-82
2021/03/07 00:32:29;;;;;;;5.05;1.83;;;2.10;81.20;;;;;;2064385;28;20037;-82
2021/03/07 00:33:30;;;;;;;4.72;2.17;;;2.10;81.20;;;;;;2056146;28;20030;-82
2021/03/07 00:34:31;;;;;;;4.32;1.90;;;2.10;81.30;;;;;;2064492;28;20423;-82
2021/03/07 00:35:31;;;;;;;5.38;1.85;;;2.10;81.30;;;;;;2064536;28;20481;-83
2021/03/07 00:36:32;;;;;;;4.32;1.80;;;2.10;81.30;;;;;;2068889;28;20182;-82
2021/03/07 00:37:33;;;;;;;5.35;2.15;;;2.10;81.30;;;;;;2071769;28;20026;-82
2021/03/07 00:38:33;;;;;;;5.57;2.00;;;2.10;81.30;;;;;;2064083;28;20089;-82
2021/03/07 00:39:34;;;;;;;5.13;2.10;;;2.10;81.40;;;;;;2056243;28;20031;-83
2021/03/07 00:40:35;;;;;;;4.45;2.15;;;2.10;81.30;;;;;;2071630;28;20034;-82
2021/03/07 00:41:36;;;;;;;3.47;1.73;;;2.10;81.40;;;;;;2064487;28;20093;-82
2021/03/07 00:42:41;;;;;;;3.53;2.00;;;2.10;82.00;;;;;;2066645;28;20026;-83
2021/03/07 00:43:42;;;;;;;5.05;1.88;;;2.10;81.40;;;;;;2080316;28;20014;-82
2021/03/07 00:44:43;;;;;;;6.07;1.65;;;2.10;81.30;;;;;;2080191;28;20068;-82
2021/03/07 00:45:43;;;;;;;4.15;1.67;;;2.10;81.40;;;;;;2071752;28;20030;-82
2021/03/07 00:46:45;;;;;;;5.40;1.90;;;2.10;81.40;;;;;;2072513;28;20428;-82
2021/03/07 00:47:46;;;;;;;5.75;2.30;;;2.10;81.40;;;;;;2080732;28;20128;-83
2021/03/07 00:48:47;;;;;;;4.03;1.88;;;2.10;82.00;;;;;;2072580;28;20030;-82
2021/03/07 00:49:47;;;;;;;3.35;1.60;;;2.10;81.40;;;;;;2064063;28;20042;-83
2021/03/07 00:50:48;;;;;;;4.60;2.05;;;2.10;82.00;;;;;;2062901;28;20138;-82
2021/03/07 00:51:49;;;;;;;5.70;2.25;;;2.10;81.40;;;;;;2061468;28;20173;-82
2021/03/07 00:52:50;;;;;;;3.45;1.88;;;2.10;81.50;;;;;;2056268;28;20082;-82
2021/03/07 00:53:51;;;;;;;3.35;1.88;;;2.10;81.50;;;;;;2072428;28;20570;-82
2021/03/07 00:54:51;;;;;;;3.88;1.85;;;2.10;82.10;;;;;;2064107;28;20437;-82
2021/03/07 00:55:52;;;;;;;4.22;1.77;;;2.10;81.50;;;;;;2063812;28;20505;-82
2021/03/07 00:56:53;;;;;;;4.60;1.77;;;2.00;81.50;;;;;;2072470;28;20068;-83
2021/03/07 00:57:54;;;;;;;3.13;1.70;;;2.10;81.60;;;;;;2056465;28;20031;-83
2021/03/07 00:58:55;;;;;;;3.88;1.50;;;2.10;81.60;;;;;;2064441;28;20428;-82
2021/03/07 00:59:55;;;;;;;3.83;1.85;;;2.00;81.60;;;;;;2063871;28;20026;-82
2021/03/07 01:00:56;;;;;;;3.97;1.83;;;2.00;81.60;;;;;;2059410;28;20501;-83
2021/03/07 01:01:57;;;;;;;5.20;2.05;;;2.00;81.70;;;;;;2056377;28;20027;-82
2021/03/07 01:02:57;;;;;;;4.10;1.80;;;2.00;81.70;;;;;;2069756;28;20022;-82
2021/03/07 01:03:58;;;;;;;4.63;1.70;;;2.00;81.70;;;;;;2064455;28;20034;-83
2021/03/07 01:04:59;;;;;;;5.18;2.05;;;2.00;81.80;;;;;;2063342;28;20109;-82
2021/03/07 01:05:59;;;;;;;5.40;2.08;;;2.00;81.80;;;;;;2048590;29;20033;-82
2021/03/07 01:07:00;;;;;;;3.85;1.88;;;2.00;81.80;;;;;;2055917;28;20046;-82
2021/03/07 01:08:01;;;;;;;4.63;1.77;;;2.00;81.80;;;;;;2062657;28;20416;-83
2021/03/07 01:09:03;;;;;;;4.75;1.90;;;2.00;81.80;;;;;;2049609;28;20564;-82
2021/03/07 01:10:17;;;;;;;4.00;1.73;;;2.00;81.80;;;;;;2064317;28;20023;-83
2021/03/07 01:11:18;;;;;;;5.38;1.73;;;2.00;81.80;;;;;;2063978;28;20058;-82
2021/03/07 01:12:19;;;;;;;3.45;1.70;;;2.00;81.80;;;;;;2063915;28;20038;-82
2021/03/07 01:13:20;;;;;;;3.80;1.80;;;2.00;81.70;;;;;;2064146;28;20042;-82
2021/03/07 01:14:20;;;;;;;4.18;1.60;;;2.00;81.80;;;;;;2065792;28;20074;-83
2021/03/07 01:15:29;;;;;;;4.53;2.00;;;2.00;81.80;;;;;;2068356;28;20034;-82
2021/03/07 01:16:30;;;;;;;3.45;1.50;;;2.00;81.80;;;;;;2067111;28;20130;-83
2021/03/07 01:17:30;;;;;;;4.15;1.80;;;2.00;81.80;;;;;;2065583;28;20045;-82
2021/03/07 01:18:31;;;;;;;4.15;1.70;;;2.00;81.80;;;;;;2074162;28;20037;-83
2021/03/07 01:19:35;;;;;;;5.85;2.03;;;2.10;81.90;;;;;;2060378;28;20114;-82
2021/03/07 01:20:38;;;;;;;3.05;1.70;;;2.10;82.50;;;;;;2066388;28;20121;-83
2021/03/07 01:21:39;;;;;;;4.35;1.73;;;2.00;81.90;;;;;;2067591;28;20037;-82
2021/03/07 01:22:40;;;;;;;4.70;1.83;;;2.00;81.90;;;;;;2065643;28;20030;-83
2021/03/07 01:23:41;;;;;;;3.13;1.58;;;2.00;81.90;;;;;;2068268;28;20404;-82
2021/03/07 01:24:41;;;;;;;3.38;1.60;;;2.00;81.90;;;;;;2065624;28;20030;-83
2021/03/07 01:25:42;;;;;;;4.45;1.67;;;2.10;82.00;;;;;;2065628;28;20516;-82
2021/03/07 01:26:43;;;;;;;3.35;1.40;;;2.10;82.00;;;;;;2082243;28;20049;-83
2021/03/07 01:27:43;;;;;;;4.50;1.48;;;2.10;82.00;;;;;;2082511;28;20057;-83
2021/03/07 01:28:44;;;;;;;4.05;1.55;;;2.10;82.00;;;;;;2074070;28;20174;-82
2021/03/07 01:29:45;;;;;;;4.38;1.50;;;2.00;81.90;;;;;;2073411;28;20117;-82
2021/03/07 01:30:45;;;;;;;4.40;2.15;;;2.10;82.10;;;;;;2065976;28;20042;-82
2021/03/07 01:31:46;;;;;;;2.55;1.42;;;2.00;82.00;;;;;;2070914;28;20480;-82
2021/03/07 01:32:47;;;;;;;5.00;1.60;;;2.10;82.00;;;;;;2057622;28;20035;-82
2021/03/07 01:33:48;;;;;;;4.15;1.75;;;2.10;82.10;;;;;;2066585;28;20110;-82
2021/03/07 01:34:48;;;;;;;4.22;1.50;;;2.00;82.00;;;;;;2065850;28;20121;-83
2021/03/07 01:35:49;;;;;;;2.70;1.42;;;2.00;82.00;;;;;;2065990;28;20030;-83
2021/03/07 01:36:49;;;;;;;3.85;1.70;;;2.00;82.00;;;;;;2065686;28;20411;-82
2021/03/07 01:37:50;;;;;;;3.40;1.60;;;2.00;82.00;;;;;;2057811;28;20149;-83
2021/03/07 01:38:51;;;;;;;3.67;1.80;;;2.00;82.10;;;;;;2057414;28;20114;-82
2021/03/07 01:39:53;;;;;;;3.58;1.70;;;2.00;82.60;;;;;;2073778;28;20464;-83
2021/03/07 01:40:54;;;;;;;2.30;1.35;;;2.00;82.00;;;;;;2078214;28;20057;-82
2021/03/07 01:41:55;;;;;;;3.67;1.48;;;2.00;82.10;;;;;;2073793;28;20044;-83
2021/03/07 01:42:58;;;;;;;3.55;1.40;;;2.00;82.10;;;;;;2081998;28;20086;-83
2021/03/07 01:43:59;;;;;;;4.35;1.50;;;1.90;82.10;;;;;;2082209;28;20018;-82
2021/03/07 01:45:00;;;;;;;4.13;1.65;;;1.90;82.10;;;;;;2082598;28;20036;-83
2021/03/07 01:46:01;;;;;;;2.88;1.75;;;1.90;82.10;;;;;;2077391;28;20416;-83
2021/03/07 01:47:02;;;;;;;3.53;1.60;;;1.90;82.20;;;;;;2073688;28;20041;-82
2021/03/07 01:48:08;;;;;;;3.90;1.80;;;1.90;82.20;;;;;;2081891;28;20040;-83
2021/03/07 01:49:08;;;;;;;2.88;1.50;;;1.90;82.20;;;;;;2067998;28;20603;-83
2021/03/07 01:50:10;;;;;;;4.25;1.40;;;1.90;82.20;;;;;;2065770;28;20038;-83
2021/03/07 01:51:13;;;;;;;2.60;1.38;;;1.90;82.20;;;;;;2065165;28;20038;-83
2021/03/07 01:52:14;;;;;;;3.22;1.50;;;1.90;82.20;;;;;;2064586;28;20527;-83
2021/03/07 01:53:16;;;;;;;2.80;1.60;;;1.80;82.20;;;;;;2065593;28;20084;-83
2021/03/07 01:54:17;;;;;;;3.47;1.60;;;1.80;82.20;;;;;;2057828;28;20545;-82
2021/03/07 01:55:25;;;;;;;4.15;1.40;;;1.80;82.30;;;;;;2049640;28;20035;-83
2021/03/07 01:56:30;;;;;;;4.93;1.70;;;1.80;82.30;;;;;;2058768;28;20042;-82
2021/03/07 01:57:32;;;;;;;3.17;1.63;;;1.70;82.30;;;;;;2071687;28;20500;-82
2021/03/07 01:58:34;;;;;;;3.83;1.60;;;1.70;82.30;;;;;;2073663;28;20070;-83
2021/03/07 01:59:36;;;;;;;3.67;1.80;;;1.70;82.40;;;;;;2081888;28;20022;-83
2021/03/07 02:00:38;;;;;;;3.55;1.50;;;1.70;82.50;;;;;;2073505;28;20045;-83
2021/03/07 02:01:40;;;;;;;3.45;1.40;;;1.60;82.40;;;;;;2073011;28;20017;-83
2021/03/07 02:02:41;;;;;;;4.28;1.77;;;1.60;82.40;;;;;;2065697;28;20047;-83
2021/03/07 02:03:54;;;;;;;2.70;1.50;;;1.60;82.50;;;;;;2065904;28;20546;-83
2021/03/07 02:04:55;;;;;;;2.97;1.60;;;1.60;82.50;;;;;;2080126;28;20586;-83
2021/03/07 02:05:56;;;;;;;3.40;1.58;;;1.60;82.50;;;;;;2065227;28;20027;-82
2021/03/07 02:06:56;;;;;;;2.40;1.33;;;1.60;82.50;;;;;;2064451;28;20369;-83
2021/03/07 02:07:57;;;;;;;3.22;1.60;;;1.50;82.50;;;;;;2072869;28;20475;-83
2021/03/07 02:08:58;;;;;;;3.30;1.67;;;1.50;82.50;;;;;;2065764;28;20034;-83
2021/03/07 02:09:58;;;;;;;5.32;1.67;;;1.50;82.50;;;;;;2070120;28;20034;-83
2021/03/07 02:11:00;;;;;;;3.03;1.50;;;1.50;82.50;;;;;;2049152;28;20031;-82
2021/03/07 02:12:01;;;;;;;3.10;1.60;;;1.50;82.50;;;;;;2065850;28;20033;-83
2021/03/07 02:13:15;;;;;;;3.70;1.80;;;1.50;82.60;;;;;;2065775;28;20029;-83
2021/03/07 02:14:16;;;;;;;3.75;1.73;;;1.50;82.60;;;;;;2068757;28;20025;-83
2021/03/07 02:15:18;;;;;;;3.63;1.52;;;1.40;82.50;;;;;;2073222;28;20072;-83
2021/03/07 02:16:22;;;;;;;2.75;1.52;;;1.40;82.50;;;;;;2073998;28;20109;-83
2021/03/07 02:17:23;;;;;;;4.40;1.60;;;1.40;82.60;;;;;;2076840;28;20554;-83
2021/03/07 02:18:24;;;;;;;4.40;1.70;;;1.40;82.60;;;;;;2074233;28;20041;-82
2021/03/07 02:19:34;;;;;;;3.63;1.40;;;1.40;82.60;;;;;;2065701;28;20049;-82
2021/03/07 02:20:38;;;;;;;2.97;1.60;;;1.40;82.60;;;;;;2066945;28;20034;-83
2021/03/07 02:21:45;;;;;;;3.83;1.50;;;1.40;82.60;;;;;;2073627;28;20500;-82
2021/03/07 02:22:57;;;;;;;5.82;1.80;;;1.30;82.60;;;;;;2081882;28;20033;-82
2021/03/07 02:24:04;;;;;;;3.88;1.60;;;1.30;82.60;;;;;;2078426;28;20580;-82
2021/03/07 02:25:07;;;;;;;5.50;1.90;;;1.30;82.60;;;;;;2073533;28;20018;-82
2021/03/07 02:26:08;;;;;;;3.92;1.80;;;1.30;82.60;;;;;;2073688;28;20148;-82
2021/03/07 02:27:09;;;;;;;3.42;1.65;;;1.20;82.60;;;;;;2074843;28;20450;-82
2021/03/07 02:28:10;;;;;;;3.42;1.40;;;1.20;82.70;;;;;;2073603;28;20400;-82
2021/03/07 02:29:12;;;;;;;2.88;1.60;;;1.20;82.70;;;;;;2065765;28;20022;-82
2021/03/07 02:30:14;;;;;;;3.50;1.45;;;1.20;82.80;;;;;;2065970;28;20035;-82
2021/03/07 02:31:22;;;;;;;3.40;1.67;;;1.20;82.80;;;;;;2076468;28;20037;-83
2021/03/07 02:32:26;;;;;;;3.92;1.30;;;1.20;82.90;;;;;;2068235;28;20018;-82
2021/03/07 02:33:33;;;;;;;3.38;1.60;;;1.20;82.80;;;;;;2066184;28;20083;-82
2021/03/07 02:34:37;;;;;;;3.05;1.52;;;1.20;82.90;;;;;;2073642;28;20045;-83
2021/03/07 02:35:44;;;;;;;2.75;1.42;;;1.10;82.80;;;;;;2065537;28;20026;-83
2021/03/07 02:36:49;;;;;;;4.25;1.67;;;1.10;82.90;;;;;;2069277;28;20562;-82
2021/03/07 02:37:55;;;;;;;4.65;1.50;;;1.10;82.90;;;;;;2081577;28;20048;-83
2021/03/07 02:38:58;;;;;;;3.05;1.63;;;1.10;83.50;;;;;;2081849;28;20076;-83
2021/03/07 02:40:00;;;;;;;4.13;1.70;;;1.10;83.50;;;;;;2081818;28;20048;-83
2021/03/07 02:41:01;;;;;;;3.05;1.55;;;1.10;82.90;;;;;;2081387;28;20032;-82
2021/03/07 02:42:15;;;;;;;3.63;1.33;;;1.10;82.90;;;;;;2065417;28;20053;-83
2021/03/07 02:43:17;;;;;;;3.47;1.50;;;1.00;82.90;;;;;;2067193;28;20026;-83
2021/03/07 02:44:18;;;;;;;3.38;1.90;;;1.00;82.90;;;;;;2065504;28;20544;-83
2021/03/07 02:45:22;;;;;;;4.53;1.90;;;1.00;83.00;;;;;;2065056;28;20040;-83
2021/03/07 02:46:24;;;;;;;3.08;1.52;;;1.00;83.10;;;;;;2065651;28;20088;-82
2021/03/07 02:47:27;;;;;;;4.20;1.70;;;0.90;83.10;;;;;;2075415;28;20038;-83
2021/03/07 02:48:29;;;;;;;3.95;1.90;;;0.90;83.70;;;;;;2081688;28;20025;-83
2021/03/07 02:49:33;;;;;;;5.43;1.75;;;1.00;83.20;;;;;;2079336;28;20034;-82
2021/03/07 02:50:35;;;;;;;3.05;1.60;;;0.90;83.10;;;;;;2073214;28;20057;-82
2021/03/07 02:51:36;;;;;;;3.13;1.65;;;1.00;83.10;;;;;;2073585;28;20112;-82
2021/03/07 02:52:40;;;;;;;2.70;1.48;;;0.90;83.10;;;;;;2065421;28;20037;-83
2021/03/07 02:53:41;;;;;;;3.10;1.33;;;0.90;83.10;;;;;;2057311;28;20492;-82
2021/03/07 02:54:43;;;;;;;2.45;1.40;;;0.90;83.00;;;;;;2073408;28;20480;-83
2021/03/07 02:55:47;;;;;;;3.25;1.63;;;0.90;83.10;;;;;;2081485;28;20128;-82
2021/03/07 02:56:51;;;;;;;3.20;1.50;;;0.90;83.10;;;;;;2081243;28;20380;-82
2021/03/07 02:57:54;;;;;;;4.70;1.65;;;0.90;83.20;;;;;;2073598;28;20028;-83
2021/03/07 02:59:00;;;;;;;4.57;1.65;;;0.90;83.20;;;;;;2072023;28;20046;-82
2021/03/07 03:00:04;;;;;;;2.88;1.33;;;0.80;83.20;;;;;;2063949;28;20026;-83
2021/03/07 03:01:07;;;;;;;3.75;1.58;;;0.80;83.30;;;;;;2065214;28;20113;-83
2021/03/07 03:02:08;;;;;;;3.10;1.55;;;0.80;83.30;;;;;;2073422;28;20447;-83
2021/03/07 03:03:10;;;;;;;2.95;1.58;;;0.80;83.30;;;;;;2073200;28;20026;-82
2021/03/07 03:04:13;;;;;;;1.73;1.20;;;0.80;83.30;;;;;;2073109;28;20366;-82
2021/03/07 03:05:16;;;;;;;2.60;1.30;;;0.80;83.40;;;;;;2064991;28;20037;-82
2021/03/07 03:06:18;;;;;;;3.47;1.60;;;0.80;83.40;;;;;;2058847;28;20038;-82
2021/03/07 03:07:20;;;;;;;3.65;1.40;;;0.80;84.00;;;;;;2073221;28;20030;-83
2021/03/07 03:08:22;;;;;;;2.55;1.52;;;0.80;83.40;;;;;;2080596;28;20025;-83
2021/03/07 03:09:26;;;;;;;4.05;1.75;;;0.80;83.50;;;;;;2065114;28;20033;-82
2021/03/07 03:10:28;;;;;;;3.92;1.60;;;0.80;83.40;;;;;;2068829;28;20049;-83
2021/03/07 03:11:36;;;;;;;3.55;1.80;;;0.80;83.40;;;;;;2064503;28;20034;-83
2021/03/07 03:12:38;;;;;;;3.28;1.50;;;0.80;83.50;;;;;;2065981;28;20030;-82
2021/03/07 03:13:39;;;;;;;3.70;1.70;;;0.80;83.40;;;;;;2073729;28;20014;-83
2021/03/07 03:14:41;;;;;;;3.88;1.50;;;0.80;83.40;;;;;;2073254;28;20021;-82
2021/03/07 03:15:44;;;;;;;2.78;1.52;;;0.80;83.50;;;;;;2060745;28;20405;-83
2021/03/07 03:16:51;;;;;;;3.10;1.45;;;0.80;83.50;;;;;;2060833;28;20054;-83
2021/03/07 03:17:53;;;;;;;3.47;1.45;;;0.80;83.70;;;;;;2058880;28;20027;-82
2021/03/07 03:18:55;;;;;;;4.72;1.52;;;0.80;83.50;;;;;;2068088;28;20045;-82
2021/03/07 03:19:58;;;;;;;3.95;1.60;;;0.80;83.50;;;;;;2065033;28;20449;-83
2021/03/07 03:21:05;;;;;;;2.65;1.60;;;0.80;83.50;;;;;;2072705;28;20024;-83
2021/03/07 03:22:06;;;;;;;4.72;1.83;;;0.70;83.50;;;;;;2081209;28;20554;-82
2021/03/07 03:23:07;;;;;;;3.08;1.38;;;0.70;83.50;;;;;;2079979;28;20369;-83
2021/03/07 03:24:08;;;;;;;3.50;1.67;;;0.80;83.60;;;;;;2080244;28;20104;-83
2021/03/07 03:25:10;;;;;;;2.72;1.58;;;0.80;83.60;;;;;;2081785;28;20049;-83
2021/03/07 03:26:11;;;;;;;2.85;1.58;;;0.80;83.60;;;;;;2072103;28;20073;-83
2021/03/07 03:27:14;;;;;;;2.78;1.50;;;0.70;83.50;;;;;;2065005;28;20038;-83
2021/03/07 03:28:14;;;;;;;4.22;1.63;;;0.70;83.60;;;;;;2056467;28;20051;-83
2021/03/07 03:29:15;;;;;;;3.08;1.70;;;0.80;83.60;;;;;;2065169;28;20504;-83
2021/03/07 03:30:18;;;;;;;3.20;1.58;;;0.70;83.50;;;;;;2089458;28;20391;-83
2021/03/07 03:31:20;;;;;;;3.90;1.52;;;0.70;83.60;;;;;;2089342;28;20044;-83
2021/03/07 03:32:21;;;;;;;2.60;1.30;;;0.70;83.50;;;;;;2079860;28;20109;-83
2021/03/07 03:33:23;;;;;;;3.75;1.27;;;0.70;84.10;;;;;;2064922;28;20049;-83
2021/03/07 03:34:24;;;;;;;3.38;1.58;;;0.70;83.50;;;;;;2064594;28;20019;-82
2021/03/07 03:35:25;;;;;;;3.38;1.58;;;0.70;83.60;;;;;;2065058;28;20044;-83
2021/03/07 03:36:25;;;;;;;2.60;1.65;;;0.70;83.60;;;;;;2064800;28;20598;-83
2021/03/07 03:37:26;;;;;;;2.38;1.55;;;0.70;83.60;;;;;;2064638;28;20030;-82
2021/03/07 03:38:43;;;;;;;3.33;1.60;;;0.70;83.60;;;;;;2069619;28;20185;-83
2021/03/07 03:39:45;;;;;;;2.33;1.35;;;0.70;83.70;;;;;;2077770;28;20041;-83
2021/03/07 03:40:51;;;;;;;2.58;1.40;;;0.70;83.70;;;;;;2079618;28;20100;-83
2021/03/07 03:41:56;;;;;;;4.20;1.30;;;0.70;83.60;;;;;;2081024;28;20033;-83
2021/03/07 03:43:03;;;;;;;3.50;1.50;;;0.70;83.60;;;;;;2073363;28;20028;-83
2021/03/07 03:44:08;;;;;;;3.15;1.40;;;0.70;83.60;;;;;;2067470;28;20109;-83
2021/03/07 03:45:10;;;;;;;3.85;1.80;;;0.70;83.60;;;;;;2065469;28;20030;-83
2021/03/07 03:46:11;;;;;;;4.25;1.52;;;0.70;83.60;;;;;;2081359;28;20075;-83
2021/03/07 03:47:15;;;;;;;2.78;1.50;;;0.70;83.60;;;;;;2081016;28;20033;-83
2021/03/07 03:48:21;;;;;;;3.08;1.58;;;0.70;83.60;;;;;;2076288;28;20038;-83
2021/03/07 03:49:26;;;;;;;4.03;1.77;;;0.70;83.60;;;;;;2065337;28;20509;-83
2021/03/07 03:50:29;;;;;;;3.15;1.60;;;0.70;83.70;;;;;;2073413;28;20451;-83
2021/03/07 03:51:34;;;;;;;2.67;1.50;;;0.60;83.60;;;;;;2080822;28;20036;-83
2021/03/07 03:52:38;;;;;;;4.05;1.60;;;0.60;83.60;;;;;;2065163;28;20030;-83
2021/03/07 03:53:41;;;;;;;2.90;1.50;;;0.60;83.60;;;;;;2064788;28;20087;-83
2021/03/07 03:54:58;;;;;;;3.13;1.60;;;0.60;83.60;;;;;;2057076;28;20724;-83
2021/03/07 03:56:00;;;;;;;3.42;1.55;;;0.60;83.70;;;;;;2062627;28;20027;-83
2021/03/07 03:57:02;;;;;;;3.70;1.52;;;0.60;83.70;;;;;;2076874;28;20034;-82
2021/03/07 03:58:06;;;;;;;2.78;1.60;;;0.60;83.70;;;;;;2073380;28;20447;-82
2021/03/07 03:59:08;;;;;;;2.83;1.30;;;0.60;83.70;;;;;;2080483;28;20043;-83
2021/03/07 04:00:14;;;;;;;2.47;1.50;;;0.60;83.70;;;;;;2072712;28;20033;-83
2021/03/07 04:01:17;;;;;;;2.72;1.55;;;0.60;83.70;;;;;;2057307;28;20030;-83
2021/03/07 04:02:19;;;;;;;2.90;1.45;;;0.60;83.70;;;;;;2064770;28;20389;-83
2021/03/07 04:03:21;;;;;;;2.85;1.45;;;0.60;83.80;;;;;;2063337;28;20066;-83
2021/03/07 04:04:22;;;;;;;3.00;1.65;;;0.50;83.70;;;;;;2072117;28;20492;-83
2021/03/07 04:05:25;;;;;;;2.90;1.50;;;0.60;83.80;;;;;;2079488;28;20029;-82
2021/03/07 04:06:27;;;;;;;3.38;1.63;;;0.60;83.80;;;;;;2064709;28;20077;-83
2021/03/07 04:07:28;;;;;;;4.25;1.95;;;0.60;83.80;;;;;;2075570;28;20049;-83
2021/03/07 04:08:29;;;;;;;3.17;1.48;;;0.50;83.80;;;;;;2077346;28;20021;-82
2021/03/07 04:09:30;;;;;;;3.08;1.30;;;0.50;83.80;;;;;;2069597;28;20120;-83
2021/03/07 04:10:31;;;;;;;3.20;1.50;;;0.50;83.80;;;;;;2069963;28;20029;-83
2021/03/07 04:11:33;;;;;;;3.28;1.85;;;0.50;83.80;;;;;;2077492;28;20436;-82
2021/03/07 04:12:38;;;;;;;3.15;1.83;;;0.50;83.80;;;;;;2076956;28;20041;-84
2021/03/07 04:13:38;;;;;;;2.45;1.55;;;0.50;83.90;;;;;;2060641;28;20062;-83
2021/03/07 04:14:39;;;;;;;2.95;1.60;;;0.50;83.90;;;;;;2073086;28;20084;-83
2021/03/07 04:15:41;;;;;;;2.60;1.55;;;0.50;83.90;;;;;;2066966;28;20104;-83
2021/03/07 04:16:42;;;;;;;4.15;1.60;;;0.50;83.90;;;;;;2075018;28;20424;-82
2021/03/07 04:17:45;;;;;;;2.42;1.35;;;0.50;84.00;;;;;;2076833;28;20092;-84
2021/03/07 04:18:46;;;;;;;3.10;1.70;;;0.50;84.00;;;;;;2062651;28;20119;-82
2021/03/07 04:19:47;;;;;;;3.70;1.63;;;0.50;84.00;;;;;;2069367;28;20015;-82
2021/03/07 04:20:49;;;;;;;3.42;1.50;;;0.50;84.70;;;;;;2076511;28;20056;-83
2021/03/07 04:21:50;;;;;;;2.40;1.60;;;0.50;84.10;;;;;;2080672;28;20396;-83
2021/03/07 04:22:50;;;;;;;2.85;1.30;;;0.40;84.00;;;;;;2065694;28;20130;-82
2021/03/07 04:23:51;;;;;;;2.88;1.65;;;0.40;84.10;;;;;;2065042;28;20054;-83
2021/03/07 04:24:52;;;;;;;3.13;1.40;;;0.40;84.10;;;;;;2072948;28;20416;-82
2021/03/07 04:25:52;;;;;;;2.60;1.60;;;0.40;84.10;;;;;;2064582;28;20189;-83
2021/03/07 04:26:57;;;;;;;3.78;1.58;;;0.40;84.10;;;;;;2059237;28;20026;-83
2021/03/07 04:27:57;;;;;;;2.78;1.50;;;0.40;84.10;;;;;;2065130;28;20022;-82
2021/03/07 04:28:58;;;;;;;2.90;1.50;;;0.40;84.10;;;;;;2072968;28;20124;-83
2021/03/07 04:30:00;;;;;;;2.78;1.60;;;0.40;84.20;;;;;;2079012;28;20113;-82
2021/03/07 04:31:01;;;;;;;3.53;1.60;;;0.40;84.20;;;;;;2073699;28;20026;-83
2021/03/07 04:32:02;;;;;;;3.03;1.63;;;0.40;84.20;;;;;;2071988;28;22317;-82
2021/03/07 04:33:04;;;;;;;4.75;1.77;;;0.40;84.20;;;;;;2057732;28;20099;-82
2021/03/07 04:34:05;;;;;;;3.53;1.60;;;0.40;84.20;;;;;;2057507;28;20065;-82
2021/03/07 04:35:06;;;;;;;3.40;1.67;;;0.40;84.20;;;;;;2065701;28;20027;-83
2021/03/07 04:36:08;;;;;;;3.33;1.70;;;0.40;84.20;;;;;;2069521;28;20039;-82
2021/03/07 04:37:09;;;;;;;2.60;1.27;;;0.40;84.20;;;;;;2072464;28;20028;-83
2021/03/07 04:38:10;;;;;;;2.97;1.40;;;0.40;84.20;;;;;;2065104;28;20030;-84
2021/03/07 04:39:11;;;;;;;3.85;1.70;;;0.40;84.20;;;;;;2059388;28;20027;-82
2021/03/07 04:40:13;;;;;;;2.95;1.60;;;0.40;84.20;;;;;;2077942;28;20030;-83
2021/03/07 04:41:13;;;;;;;3.17;1.60;;;0.40;84.20;;;;;;2077239;28;20033;-82
2021/03/07 04:42:14;;;;;;;3.67;1.55;;;0.40;84.20;;;;;;2079128;28;20097;-83
2021/03/07 04:43:18;;;;;;;4.03;1.60;;;0.40;84.20;;;;;;2071473;28;20041;-83
2021/03/07 04:44:19;;;;;;;3.00;1.42;;;0.40;84.30;;;;;;2079116;28;20113;-83
2021/03/07 04:45:20;;;;;;;2.75;1.23;;;0.30;84.30;;;;;;2081120;28;20450;-83
2021/03/07 04:46:22;;;;;;;3.10;1.50;;;0.30;84.30;;;;;;2076132;28;20108;-83
2021/03/07 04:47:23;;;;;;;2.47;1.60;;;0.30;84.30;;;;;;2070610;28;20037;-83
2021/03/07 04:48:24;;;;;;;3.65;1.60;;;0.30;84.20;;;;;;2063564;28;20061;-83
2021/03/07 04:49:24;;;;;;;2.42;1.23;;;0.30;84.30;;;;;;2055146;28;20125;-83
2021/03/07 04:50:25;;;;;;;3.17;1.58;;;0.30;84.30;;;;;;2056260;28;20041;-83
2021/03/07 04:51:26;;;;;;;2.83;1.40;;;0.30;84.30;;;;;;2056493;28;20031;-83
2021/03/07 04:52:29;;;;;;;4.53;1.67;;;0.30;84.40;;;;;;2064373;28;20022;-83
2021/03/07 04:53:30;;;;;;;2.30;1.45;;;0.30;84.40;;;;;;2064484;28;20030;-83
2021/03/07 04:54:31;;;;;;;2.72;1.30;;;0.30;84.40;;;;;;2061145;28;20023;-83
2021/03/07 04:55:31;;;;;;;2.65;1.40;;;0.20;84.30;;;;;;2064228;28;20077;-83
2021/03/07 04:56:32;;;;;;;3.40;1.70;;;0.30;84.40;;;;;;2056738;28;20074;-82
2021/03/07 04:57:33;;;;;;;2.85;1.58;;;0.20;84.30;;;;;;2056549;28;20093;-83
2021/03/07 04:58:35;;;;;;;2.72;1.40;;;0.20;84.40;;;;;;2064383;28;20165;-82
2021/03/07 04:59:36;;;;;;;2.95;1.50;;;0.20;84.40;;;;;;2071229;28;20120;-81
2021/03/07 05:00:36;;;;;;;2.58;1.50;;;0.20;84.40;;;;;;2079051;28;20042;-82
2021/03/07 05:01:38;;;;;;;2.38;1.40;;;0.20;84.50;;;;;;2071873;28;20442;-82
2021/03/07 05:02:39;;;;;;;4.03;1.30;;;0.20;84.40;;;;;;2072280;28;20116;-81
2021/03/07 05:03:39;;;;;;;3.45;1.35;;;0.20;84.50;;;;;;2081360;28;20017;-82
2021/03/07 05:04:40;;;;;;;2.28;1.35;;;0.20;84.50;;;;;;2055597;28;20591;-81
2021/03/07 05:05:40;;;;;;;2.33;1.40;;;0.20;84.50;;;;;;2064372;28;20145;-81
2021/03/07 05:06:41;;;;;;;2.05;1.30;;;0.20;84.60;;;;;;2069060;28;20097;-81
2021/03/07 05:07:42;;;;;;;3.88;1.50;;;0.20;84.60;;;;;;2056341;28;20383;-82
2021/03/07 05:08:43;;;;;;;2.67;1.40;;;0.20;84.50;;;;;;2055934;28;20144;-81
2021/03/07 05:09:44;;;;;;;2.03;1.20;;;0.20;84.50;;;;;;2056359;28;20077;-82
2021/03/07 05:10:44;;;;;;;3.78;1.48;;;0.20;84.50;;;;;;2056488;28;20054;-82
2021/03/07 05:11:45;;;;;;;2.50;1.30;;;0.20;84.50;;;;;;2071797;28;20053;-82
2021/03/07 05:12:45;;;;;;;2.75;1.50;;;0.20;85.00;;;;;;2080560;28;20405;-82
2021/03/07 05:13:46;;;;;;;3.58;1.40;;;0.20;84.40;;;;;;2072571;28;20045;-82
2021/03/07 05:14:47;;;;;;;3.15;1.40;;;0.20;84.40;;;;;;2056358;28;20025;-81
2021/03/07 05:15:48;;;;;;;3.72;1.50;;;0.20;84.40;;;;;;2072729;28;20125;-81
2021/03/07 05:16:49;;;;;;;3.13;1.40;;;0.20;84.40;;;;;;2071810;28;20025;-81
2021/03/07 05:17:49;;;;;;;4.72;1.50;;;0.20;84.40;;;;;;2072308;28;20049;-81
2021/03/07 05:18:50;;;;;;;2.50;1.30;;;0.20;84.40;;;;;;2064027;28;20074;-81
2021/03/07 05:19:51;;;;;;;3.65;1.48;;;0.20;84.40;;;;;;2056199;28;20027;-81
2021/03/07 05:20:52;;;;;;;3.15;1.40;;;0.20;84.30;;;;;;2056199;28;20023;-82
2021/03/07 05:21:53;;;;;;;4.45;1.70;;;0.20;84.30;;;;;;2072152;28;20629;-81
2021/03/07 05:22:53;;;;;;;2.97;1.52;;;0.20;84.30;;;;;;2080298;28;20148;-82
2021/03/07 05:23:54;;;;;;;2.63;1.30;;;0.30;84.30;;;;;;2072564;28;20022;-81
2021/03/07 05:24:55;;;;;;;2.88;1.50;;;0.30;84.40;;;;;;2056210;28;20416;-81
2021/03/07 05:25:57;;;;;;;2.72;1.30;;;0.30;84.40;;;;;;2064268;28;20054;-82
2021/03/07 05:27:05;;;;;;;3.67;1.40;;;0.30;84.30;;;;;;2064924;28;20077;-81